createdAt,value
2022-09-15T00:01:08.039Z,99764.75
2022-09-15T00:03:38.766Z,99768.16
2022-09-15T00:06:09.685Z,99768.16
2022-09-15T00:08:40.477Z,99764.03
2022-09-15T00:11:16.241Z,99769.09
2022-09-15T00:13:47.222Z,99762.06
2022-09-15T00:16:19.869Z,99767.25
2022-09-15T00:18:50.389Z,99762.97
2022-09-15T00:21:26.625Z,99756.03
2022-09-15T00:23:57.314Z,99753.59
2022-09-15T00:26:29.143Z,99759.78
2022-09-15T00:29:00.372Z,99763.25
2022-09-15T00:31:31.963Z,99754.53
2022-09-15T00:34:03.002Z,99748.50
2022-09-15T00:36:33.575Z,99755.50
2022-09-15T00:39:04.147Z,99755.50
2022-09-15T00:41:34.597Z,99751.91
2022-09-15T00:44:36.336Z,99745.00
2022-09-15T00:47:19.328Z,99751.81
2022-09-15T00:49:58.790Z,99748.41
2022-09-15T00:52:36.274Z,99742.47
2022-09-15T00:55:24.202Z,99746.00
2022-09-15T00:57:57.340Z,99724.50
2022-09-15T01:00:28.586Z,99730.53
2022-09-15T01:02:59.317Z,99744.34
2022-09-15T01:05:34.870Z,99736.47
2022-09-15T01:08:09.184Z,99725.88
2022-09-15T01:10:41.375Z,99720.50
2022-09-15T01:13:13.585Z,99722.06
2022-09-15T01:19:43.661Z,99723.59
2022-09-15T01:22:38.658Z,99712.22
2022-09-15T01:25:28.053Z,99709.53
2022-09-15T01:28:26.248Z,99710.28
2022-09-15T01:31:12.327Z,99698.38
2022-09-15T01:34:06.368Z,99705.31
2022-09-15T01:36:44.473Z,99708.81
2022-09-15T01:39:20.976Z,99705.38
2022-09-15T01:41:53.714Z,99700.88
2022-09-15T01:44:32.515Z,99695.16
2022-09-15T01:47:08.179Z,99698.50
2022-09-15T01:50:03.008Z,99688.00
2022-09-15T01:52:33.876Z,99691.56
2022-09-15T01:55:18.432Z,99690.50
2022-09-15T01:57:49.156Z,99687.03
2022-09-15T02:00:19.448Z,99690.56
2022-09-15T02:03:17.435Z,99699.09
2022-09-15T02:05:59.144Z,99694.69
2022-09-15T02:08:40.088Z,99695.47
2022-09-15T02:11:16.441Z,99696.31
2022-09-15T02:13:58.272Z,99692.84
2022-09-15T02:16:32.606Z,99691.16
2022-09-15T02:19:32.142Z,99689.22
2022-09-15T02:22:31.078Z,99689.13
2022-09-15T02:25:08.271Z,99679.66
2022-09-15T02:27:46.309Z,99683.94
2022-09-15T02:30:19.825Z,99682.34
2022-09-15T02:33:01.310Z,99686.75
2022-09-15T02:35:35.079Z,99684.97
2022-09-15T02:38:09.306Z,99679.72
2022-09-15T02:40:44.885Z,99685.03
2022-09-15T02:43:17.315Z,99684.97
2022-09-15T02:45:47.984Z,99683.34
2022-09-15T02:48:18.317Z,99688.66
2022-09-15T02:50:48.400Z,99680.94
2022-09-15T02:53:18.599Z,99671.28
2022-09-15T02:55:49.679Z,99675.63
2022-09-15T02:58:19.853Z,99671.13
2022-09-15T03:00:50.894Z,99671.13
2022-09-15T03:03:22.127Z,99664.25
2022-09-15T03:05:52.278Z,99659.16
2022-09-15T03:08:22.433Z,99669.44
2022-09-15T03:10:52.606Z,99654.84
2022-09-15T03:13:23.426Z,99668.50
2022-09-15T03:15:53.587Z,99660.78
2022-09-15T03:18:23.762Z,99665.03
2022-09-15T03:20:57.036Z,99658.16
2022-09-15T03:23:27.493Z,99662.41
2022-09-15T03:25:59.428Z,99662.41
2022-09-15T03:28:29.831Z,99665.13
2022-09-15T03:30:59.984Z,99661.63
2022-09-15T03:33:30.098Z,99659.88
2022-09-15T03:36:00.720Z,99666.81
2022-09-15T03:38:31.100Z,99667.75
2022-09-15T03:41:02.765Z,99663.47
2022-09-15T03:43:33.368Z,99660.78
2022-09-15T03:46:05.557Z,99664.34
2022-09-15T03:48:36.488Z,99660.84
2022-09-15T03:51:08.516Z,99656.53
2022-09-15T03:53:40.775Z,99648.81
2022-09-15T03:56:24.708Z,99651.28
2022-09-15T03:58:54.936Z,99647.81
2022-09-15T04:01:25.976Z,99661.84
2022-09-15T04:03:57.002Z,99656.72
2022-09-15T04:06:27.500Z,99649.72
2022-09-15T04:09:00.335Z,99635.91
2022-09-15T04:11:31.095Z,99647.22
2022-09-15T04:14:01.234Z,99642.97
2022-09-15T04:16:31.488Z,99642.13
2022-09-15T04:19:01.724Z,99638.78
2022-09-15T04:21:32.208Z,99645.72
2022-09-15T04:24:04.917Z,99644.09
2022-09-15T04:26:37.181Z,99647.53
2022-09-15T04:29:15.188Z,99638.97
2022-09-15T04:31:45.689Z,99627.06
2022-09-15T04:34:16.089Z,99633.75
2022-09-15T04:36:46.841Z,99633.78
2022-09-15T04:39:17.001Z,99633.69
2022-09-15T04:41:47.253Z,99631.25
2022-09-15T04:44:17.532Z,99633.75
2022-09-15T04:46:48.892Z,99623.38
2022-09-15T04:49:19.229Z,99625.28
2022-09-15T04:51:49.474Z,99631.97
2022-09-15T04:54:20.260Z,99618.16
2022-09-15T04:56:50.463Z,99627.56
2022-09-15T04:59:20.770Z,99623.25
2022-09-15T05:01:55.486Z,99624.81
2022-09-15T05:04:25.958Z,99624.88
2022-09-15T05:06:56.096Z,99633.75
2022-09-15T05:09:28.008Z,99608.81
2022-09-15T05:11:58.202Z,99626.78
2022-09-15T05:14:28.405Z,99635.50
2022-09-15T05:16:58.501Z,99638.97
2022-09-15T05:19:28.667Z,99633.00
2022-09-15T05:21:58.756Z,99620.25
2022-09-15T05:24:28.935Z,99632.81
2022-09-15T05:26:59.389Z,99618.84
2022-09-15T05:29:29.521Z,99617.06
2022-09-15T05:31:59.713Z,99615.72
2022-09-15T05:34:37.630Z,99613.94
2022-09-15T05:37:08.008Z,99619.09
2022-09-15T05:39:39.467Z,99619.78
2022-09-15T05:42:09.662Z,99610.97
2022-09-15T05:44:39.805Z,99611.91
2022-09-15T05:47:10.647Z,99621.25
2022-09-15T05:49:40.753Z,99622.19
2022-09-15T05:52:10.826Z,99610.06
2022-09-15T05:54:41.207Z,99617.72
2022-09-15T05:57:11.605Z,99600.22
2022-09-15T05:59:44.035Z,99601.13
2022-09-15T06:02:14.313Z,99596.66
2022-09-15T06:04:44.593Z,99623.25
2022-09-15T06:07:14.882Z,99607.81
2022-09-15T06:09:45.369Z,99617.75
2022-09-15T06:12:17.941Z,99613.34
2022-09-15T06:14:50.655Z,99619.31
2022-09-15T06:17:22.365Z,99613.75
2022-09-15T06:19:52.535Z,99606.97
2022-09-15T06:22:22.673Z,99610.50
2022-09-15T06:24:53.124Z,99607.81
2022-09-15T06:27:23.375Z,99609.44
2022-09-15T06:29:53.516Z,99605.00
2022-09-15T06:32:23.793Z,99594.50
2022-09-15T06:34:54.011Z,99574.41
2022-09-15T06:37:24.383Z,99584.19
2022-09-15T06:39:54.513Z,99583.97
2022-09-15T06:42:24.892Z,99568.94
2022-09-15T06:44:55.101Z,99579.09
2022-09-15T06:47:25.318Z,99571.06
2022-09-15T06:49:55.921Z,99570.09
2022-09-15T06:52:26.005Z,99567.22
2022-09-15T06:54:56.241Z,99556.50
2022-09-15T06:57:26.425Z,99560.53
2022-09-15T06:59:56.675Z,99565.63
2022-09-15T07:02:26.958Z,99568.09
2022-09-15T07:04:57.142Z,99560.84
2022-09-15T07:07:27.906Z,99560.69
2022-09-15T07:09:58.105Z,99568.50
2022-09-15T07:12:29.548Z,99565.66
2022-09-15T07:14:59.721Z,99575.31
2022-09-15T07:17:29.901Z,99563.47
2022-09-15T07:20:00.702Z,99547.25
2022-09-15T07:22:30.841Z,99576.31
2022-09-15T07:25:00.994Z,99571.66
2022-09-15T07:27:31.904Z,99574.22
2022-09-15T07:30:02.539Z,99580.25
2022-09-15T07:32:33.460Z,99587.06
2022-09-15T07:35:03.899Z,99585.28
2022-09-15T07:37:34.066Z,99594.19
2022-09-15T07:40:04.579Z,99588.31
2022-09-15T07:42:35.580Z,99585.81
2022-09-15T07:45:06.471Z,99590.06
2022-09-15T07:47:36.695Z,99596.25
2022-09-15T07:50:07.413Z,99600.50
2022-09-15T07:52:37.613Z,99578.72
2022-09-15T07:55:09.568Z,99579.53
2022-09-15T07:57:39.737Z,99575.06
2022-09-15T08:00:10.581Z,99564.84
2022-09-15T08:02:41.064Z,99589.69
2022-09-15T08:05:11.159Z,99591.53
2022-09-15T08:07:41.318Z,99606.31
2022-09-15T08:10:11.661Z,99603.50
2022-09-15T08:12:42.457Z,99595.50
2022-09-15T08:15:12.575Z,99602.50
2022-09-15T08:17:42.665Z,99594.38
2022-09-15T08:20:13.828Z,99612.25
2022-09-15T08:22:45.748Z,99596.47
2022-09-15T08:25:15.929Z,99589.44
2022-09-15T08:27:46.048Z,99591.22
2022-09-15T08:30:18.280Z,99582.66
2022-09-15T08:32:49.312Z,99593.47
2022-09-15T08:35:20.098Z,99575.00
2022-09-15T08:37:50.137Z,99577.97
2022-09-15T08:40:24.317Z,99579.88
2022-09-15T08:43:01.884Z,99586.66
2022-09-15T08:45:56.046Z,99603.53
2022-09-15T08:48:31.893Z,99594.78
2022-09-15T08:51:12.216Z,99594.63
2022-09-15T08:53:50.124Z,99573.06
2022-09-15T08:56:21.238Z,99588.72
2022-09-15T08:58:51.361Z,99580.34
2022-09-15T09:01:39.618Z,99587.81
2022-09-15T09:04:19.729Z,99606.75
2022-09-15T09:07:16.351Z,99600.38
2022-09-15T09:09:57.233Z,99589.59
2022-09-15T09:13:13.275Z,99592.84
2022-09-15T09:15:58.447Z,99599.41
2022-09-15T09:19:01.109Z,99607.22
2022-09-15T09:21:37.856Z,99601.00
2022-09-15T09:24:24.983Z,99604.34
2022-09-15T09:26:55.960Z,99591.59
2022-09-15T09:29:40.456Z,99596.25
2022-09-15T09:32:43.936Z,99593.22
2022-09-15T09:35:21.694Z,99604.69
2022-09-15T09:37:52.822Z,99596.69
2022-09-15T09:40:23.322Z,99592.28
2022-09-15T09:42:54.431Z,99590.09
2022-09-15T09:45:24.528Z,99593.16
2022-09-15T09:48:02.405Z,99592.31
2022-09-15T09:50:43.722Z,99584.13
2022-09-15T09:53:28.136Z,99576.66
2022-09-15T09:56:26.617Z,99573.31
2022-09-15T09:58:56.900Z,99577.03
2022-09-15T10:01:27.570Z,99559.84
2022-09-15T10:04:18.333Z,99557.00
2022-09-15T10:06:49.424Z,99561.44
2022-09-15T10:09:19.929Z,99571.22
2022-09-15T10:11:54.198Z,99581.50
2022-09-15T10:14:30.454Z,99569.19
2022-09-15T10:17:06.395Z,99560.06
2022-09-15T10:19:55.130Z,99567.59
2022-09-15T10:22:28.207Z,99564.84
2022-09-15T10:25:04.556Z,99558.94
2022-09-15T10:27:35.931Z,99569.84
2022-09-15T10:30:15.077Z,99577.88
2022-09-15T10:32:45.502Z,99566.72
2022-09-15T10:35:20.602Z,99561.03
2022-09-15T10:37:53.645Z,99562.91
2022-09-15T10:40:43.986Z,99563.91
2022-09-15T10:43:14.036Z,99575.91
2022-09-15T10:45:49.081Z,99562.03
2022-09-15T10:48:48.448Z,99566.81
2022-09-15T10:51:50.617Z,99562.78
2022-09-15T10:54:50.643Z,99566.38
2022-09-15T11:00:22.750Z,99561.94
2022-09-15T11:03:25.023Z,99553.09
2022-09-15T11:06:17.562Z,99543.09
2022-09-15T11:08:56.456Z,99563.72
2022-09-15T11:11:52.660Z,99570.69
2022-09-15T11:14:43.736Z,99559.00
2022-09-15T11:17:35.391Z,99553.72
2022-09-15T11:20:20.020Z,99552.22
2022-09-15T11:23:22.834Z,99553.44
2022-09-15T11:26:13.171Z,99544.84
2022-09-15T11:28:54.038Z,99539.56
2022-09-15T11:31:48.014Z,99540.78
2022-09-15T11:34:30.688Z,99552.09
2022-09-15T11:37:10.086Z,99541.72
2022-09-15T11:39:53.643Z,99533.53
2022-09-15T11:42:36.325Z,99531.44
2022-09-15T11:45:17.814Z,99529.78
2022-09-15T11:47:52.874Z,99530.97
2022-09-15T11:50:25.980Z,99527.94
2022-09-15T11:53:16.874Z,99540.19
2022-09-15T11:56:00.843Z,99541.03
2022-09-15T11:58:33.701Z,99563.81
2022-09-15T12:01:25.268Z,99551.75
2022-09-15T12:04:04.855Z,99551.97
2022-09-15T12:07:14.607Z,99530.88
2022-09-15T12:09:45.693Z,99525.69
2022-09-15T12:12:20.553Z,99548.47
2022-09-15T12:14:53.808Z,99532.50
2022-09-15T12:17:41.118Z,99527.03
2022-09-15T12:20:23.618Z,99534.94
2022-09-15T12:23:03.210Z,99545.84
2022-09-15T12:26:02.317Z,99532.88
2022-09-15T12:28:52.525Z,99539.13
2022-09-15T12:31:37.350Z,99577.03
2022-09-15T12:34:25.722Z,99556.78
2022-09-15T12:37:09.046Z,99559.63
2022-09-15T12:39:47.234Z,99568.22
2022-09-15T12:42:23.746Z,99575.41
2022-09-15T12:45:12.436Z,99581.28
2022-09-15T12:47:50.895Z,99567.88
2022-09-15T12:50:36.619Z,99600.97
2022-09-15T12:53:14.783Z,99590.41
2022-09-15T12:55:57.435Z,99565.78
2022-09-15T12:58:38.159Z,99578.25
2022-09-15T13:01:26.409Z,99592.28
2022-09-15T13:03:59.655Z,99590.13
2022-09-15T13:06:37.924Z,99582.84
2022-09-15T13:09:28.444Z,99578.63
2022-09-15T13:11:58.653Z,99588.59
2022-09-15T13:14:42.171Z,99589.41
2022-09-15T13:17:25.466Z,99568.94
2022-09-15T13:20:00.265Z,99559.50
2022-09-15T13:22:37.825Z,99583.19
2022-09-15T13:25:11.104Z,99587.16
2022-09-15T13:27:45.753Z,99580.59
2022-09-15T13:30:22.161Z,99586.75
2022-09-15T13:33:19.260Z,99576.06
2022-09-15T13:35:52.482Z,99578.63
2022-09-15T13:38:31.847Z,99581.47
2022-09-15T13:41:14.279Z,99579.81
2022-09-15T13:44:03.181Z,99587.75
2022-09-15T13:47:02.723Z,99578.69
2022-09-15T13:49:59.859Z,99572.72
2022-09-15T13:52:59.273Z,99567.94
2022-09-15T13:55:33.895Z,99548.16
2022-09-15T14:01:05.803Z,99556.47
2022-09-15T14:03:49.049Z,99558.75
2022-09-15T14:06:30.436Z,99573.81
2022-09-15T14:09:13.748Z,99575.31
2022-09-15T14:11:47.279Z,99570.78
2022-09-15T14:14:50.952Z,99571.53
2022-09-15T14:17:28.988Z,99576.91
2022-09-15T14:20:01.074Z,99566.22
2022-09-15T14:22:33.826Z,99570.91
2022-09-15T14:25:14.653Z,99573.72
2022-09-15T14:27:50.176Z,99564.22
2022-09-15T14:30:25.111Z,99564.97
2022-09-15T14:33:00.864Z,99576.63
2022-09-15T14:35:38.259Z,99561.66
2022-09-15T14:38:25.876Z,99557.34
2022-09-15T14:41:01.159Z,99547.06
2022-09-15T14:43:37.783Z,99561.66
2022-09-15T14:46:20.647Z,99559.22
2022-09-15T14:48:53.687Z,99568.16
2022-09-15T14:51:33.901Z,99564.72
2022-09-15T14:54:07.688Z,99575.03
2022-09-15T14:56:42.667Z,99552.59
2022-09-15T14:59:30.189Z,99550.53
2022-09-15T15:02:20.812Z,99566.94
2022-09-15T15:04:59.464Z,99558.56
2022-09-15T15:07:32.273Z,99558.75
2022-09-15T15:10:06.241Z,99564.59
2022-09-15T15:12:41.542Z,99564.22
2022-09-15T15:15:16.592Z,99554.09
2022-09-15T15:17:54.852Z,99562.69
2022-09-15T15:20:33.100Z,99555.53
2022-09-15T15:23:26.020Z,99558.94
2022-09-15T15:26:27.432Z,99551.59
2022-09-15T15:28:57.524Z,99574.69
2022-09-15T15:31:33.006Z,99522.38
2022-09-15T15:34:06.520Z,99550.41
2022-09-15T15:36:36.701Z,99541.16
2022-09-15T15:39:19.388Z,99552.69
2022-09-15T15:44:27.631Z,99560.06
2022-09-15T15:47:01.648Z,99554.31
2022-09-15T15:49:32.715Z,99562.78
2022-09-15T15:52:03.088Z,99559.38
2022-09-15T15:54:34.335Z,99553.13
2022-09-15T15:57:21.993Z,99549.47
2022-09-15T15:59:58.531Z,99562.25
2022-09-15T16:02:28.957Z,99553.53
2022-09-15T16:04:59.132Z,99553.88
2022-09-15T16:07:33.399Z,99548.97
2022-09-15T16:10:04.701Z,99558.88
2022-09-15T16:12:35.541Z,99546.22
2022-09-15T16:15:32.543Z,99554.41
2022-09-15T16:18:02.713Z,99544.63
2022-09-15T16:20:33.229Z,99542.50
2022-09-15T16:23:03.680Z,99554.22
2022-09-15T16:25:42.464Z,99540.53
2022-09-15T16:28:12.883Z,99545.53
2022-09-15T16:30:43.113Z,99558.72
2022-09-15T16:33:18.203Z,99559.00
2022-09-15T16:35:56.062Z,99565.84
2022-09-15T16:38:28.340Z,99558.03
2022-09-15T16:40:58.452Z,99563.66
2022-09-15T16:43:28.826Z,99563.59
2022-09-15T16:45:58.954Z,99576.47
2022-09-15T16:48:29.158Z,99576.91
2022-09-15T16:51:20.974Z,99575.88
2022-09-15T16:53:51.268Z,99568.75
2022-09-15T16:56:21.397Z,99579.59
2022-09-15T16:58:58.909Z,99571.53
2022-09-15T17:01:30.261Z,99575.50
2022-09-15T17:04:01.940Z,99587.09
2022-09-15T17:06:32.148Z,99580.00
2022-09-15T17:09:02.352Z,99577.91
2022-09-15T17:11:32.472Z,99587.91
2022-09-15T17:14:02.597Z,99578.16
2022-09-15T17:16:32.756Z,99570.03
2022-09-15T17:19:02.895Z,99564.34
2022-09-15T17:21:33.140Z,99577.47
2022-09-15T17:24:03.447Z,99592.94
2022-09-15T17:26:33.683Z,99592.28
2022-09-15T17:29:03.798Z,99582.16
2022-09-15T17:31:34.043Z,99571.16
2022-09-15T17:34:04.358Z,99592.13
2022-09-15T17:36:36.305Z,99591.50
2022-09-15T17:39:06.597Z,99601.59
2022-09-15T17:41:38.711Z,99579.78
2022-09-15T17:44:11.056Z,99594.41
2022-09-15T17:46:41.225Z,99593.84
2022-09-15T17:49:11.612Z,99608.75
2022-09-15T17:51:41.818Z,99609.66
2022-09-15T17:54:13.632Z,99606.56
2022-09-15T17:56:43.832Z,99602.41
2022-09-15T17:59:16.217Z,99605.19
2022-09-15T18:01:46.907Z,99605.88
2022-09-15T18:04:17.019Z,99606.88
2022-09-15T18:06:47.201Z,99611.28
2022-09-15T18:09:17.865Z,99597.66
2022-09-15T18:11:48.140Z,99609.16
2022-09-15T18:14:18.319Z,99596.25
2022-09-15T18:16:48.443Z,99605.88
2022-09-15T18:19:18.655Z,99613.97
2022-09-15T18:21:53.086Z,99596.09
2022-09-15T18:24:23.305Z,99606.66
2022-09-15T18:26:54.448Z,99606.09
2022-09-15T18:29:24.567Z,99612.38
2022-09-15T18:31:54.803Z,99603.19
2022-09-15T18:34:25.141Z,99602.50
2022-09-15T18:36:55.633Z,99609.72
2022-09-15T18:39:26.242Z,99609.81
2022-09-15T18:41:56.517Z,99610.63
2022-09-15T18:44:26.647Z,99597.00
2022-09-15T18:46:56.815Z,99609.97
2022-09-15T18:49:26.939Z,99608.34
2022-09-15T18:51:57.155Z,99614.78
2022-09-15T18:54:27.316Z,99603.75
2022-09-15T18:56:58.212Z,99610.69
2022-09-15T18:59:29.782Z,99612.63
2022-09-15T19:01:59.988Z,99598.13
2022-09-15T19:04:32.760Z,99590.47
2022-09-15T19:07:05.306Z,99607.72
2022-09-15T19:09:36.105Z,99608.03
2022-09-15T19:12:06.436Z,99600.19
2022-09-15T19:14:36.678Z,99594.38
2022-09-15T19:17:06.861Z,99596.03
2022-09-15T19:19:37.072Z,99584.44
2022-09-15T19:22:07.591Z,99607.72
2022-09-15T19:24:37.940Z,99602.81
2022-09-15T19:27:09.044Z,99593.56
2022-09-15T19:29:39.784Z,99597.16
2022-09-15T19:32:13.163Z,99601.47
2022-09-15T19:34:43.338Z,99587.31
2022-09-15T19:37:18.777Z,99612.31
2022-09-15T19:39:50.070Z,99598.69
2022-09-15T19:42:20.395Z,99599.78
2022-09-15T19:44:50.644Z,99620.00
2022-09-15T19:47:20.852Z,99619.25
2022-09-15T19:49:54.227Z,99611.59
2022-09-15T19:52:24.487Z,99608.44
2022-09-15T19:54:55.033Z,99608.44
2022-09-15T19:57:25.306Z,99612.25
2022-09-15T19:59:57.818Z,99621.06
2022-09-15T20:02:28.164Z,99608.97
2022-09-15T20:07:48.919Z,99607.38
2022-09-15T20:10:19.402Z,99609.25
2022-09-15T20:12:49.579Z,99613.72
2022-09-15T20:15:19.781Z,99613.94
2022-09-15T20:17:50.279Z,99611.53
2022-09-15T20:20:20.576Z,99598.84
2022-09-15T20:22:50.720Z,99610.81
2022-09-15T20:25:21.081Z,99613.50
2022-09-15T20:27:52.826Z,99615.22
2022-09-15T20:30:23.854Z,99615.22
2022-09-15T20:32:54.157Z,99611.91
2022-09-15T20:35:24.697Z,99594.03
2022-09-15T20:37:54.851Z,99620.69
2022-09-15T20:40:26.571Z,99622.63
2022-09-15T20:42:56.921Z,99613.13
2022-09-15T20:45:27.777Z,99606.25
2022-09-15T20:47:57.960Z,99602.03
2022-09-15T20:50:28.100Z,99612.19
2022-09-15T20:52:58.220Z,99611.41
2022-09-15T20:55:30.298Z,99605.38
2022-09-15T20:58:00.404Z,99608.88
2022-09-15T21:00:33.851Z,99592.53
2022-09-15T21:03:04.414Z,99605.44
2022-09-15T21:05:34.573Z,99601.06
2022-09-15T21:08:05.609Z,99588.97
2022-09-15T21:10:35.738Z,99584.75
2022-09-15T21:13:07.849Z,99597.47
2022-09-15T21:15:38.067Z,99591.56
2022-09-15T21:18:08.285Z,99599.28
2022-09-15T21:20:38.504Z,99590.56
2022-09-15T21:23:09.083Z,99598.41
2022-09-15T21:25:39.313Z,99597.59
2022-09-15T21:28:10.409Z,99594.06
2022-09-15T21:30:40.843Z,99573.31
2022-09-15T21:33:11.131Z,99580.31
2022-09-15T21:35:42.171Z,99596.38
2022-09-15T21:38:12.277Z,99599.94
2022-09-15T21:40:47.283Z,99585.25
2022-09-15T21:43:17.751Z,99597.31
2022-09-15T21:45:48.005Z,99592.31
2022-09-15T21:48:18.230Z,99587.25
2022-09-15T21:50:52.319Z,99599.50
2022-09-15T21:53:22.983Z,99583.78
2022-09-15T21:55:53.373Z,99586.22
2022-09-15T21:58:26.103Z,99584.44
2022-09-15T22:00:56.426Z,99594.75
2022-09-15T22:03:26.600Z,99586.97
2022-09-15T22:05:57.340Z,99583.56
2022-09-15T22:08:27.584Z,99584.44
2022-09-15T22:11:01.415Z,99600.59
2022-09-15T22:13:32.369Z,99602.34
2022-09-15T22:16:04.647Z,99605.78
2022-09-15T22:18:40.350Z,99604.16
2022-09-15T22:21:19.634Z,99598.06
2022-09-15T22:23:51.070Z,99580.88
2022-09-15T22:26:24.381Z,99595.50
2022-09-15T22:28:55.730Z,99606.59
2022-09-15T22:31:27.848Z,99596.06
2022-09-15T22:33:59.344Z,99585.84
2022-09-15T22:36:33.153Z,99588.13
2022-09-15T22:39:05.489Z,99587.31
2022-09-15T22:41:40.782Z,99582.81
2022-09-15T22:44:23.414Z,99586.28
2022-09-15T22:46:56.545Z,99594.06
2022-09-15T22:49:29.093Z,99581.91
2022-09-15T22:52:02.354Z,99585.28
2022-09-15T22:54:35.243Z,99584.31
2022-09-15T22:57:08.723Z,99590.25
2022-09-15T22:59:40.907Z,99587.41
2022-09-15T23:02:13.598Z,99597.84
2022-09-15T23:04:46.263Z,99568.66
2022-09-15T23:07:16.377Z,99588.13
2022-09-15T23:09:46.525Z,99577.09
2022-09-15T23:12:16.782Z,99586.50
2022-09-15T23:14:46.908Z,99587.41
2022-09-15T23:17:17.065Z,99579.63
2022-09-15T23:19:47.368Z,99586.78
2022-09-15T23:22:17.540Z,99582.53
2022-09-15T23:24:47.840Z,99589.09
2022-09-15T23:27:17.964Z,99586.63
2022-09-15T23:29:48.098Z,99588.78
2022-09-15T23:32:18.265Z,99587.25
2022-09-15T23:34:49.150Z,99579.56
2022-09-15T23:37:19.239Z,99582.34
2022-09-15T23:39:49.521Z,99563.66
2022-09-15T23:42:19.733Z,99573.34
2022-09-15T23:44:50.031Z,99576.94
2022-09-15T23:47:20.143Z,99579.75
2022-09-15T23:49:50.286Z,99583.44
2022-09-15T23:52:20.415Z,99574.03
2022-09-15T23:54:50.595Z,99575.81
2022-09-15T23:57:20.773Z,99580.19
2022-09-15T23:59:50.950Z,99576.13
